KTOR/TOR METAR and TAF weather

Enter ICAO airport designator
Station Type Date Time Source
KTOR METAR 2024/07/23 17:53 UTC NOAA

KTOR 231753Z AUTO 25005KT 8SM CLR 30/11 A3015 RMK AO2 SLP159 T03000106 10300 20133 58005


Station Type Date Time Source
KTOR Decoded METAR 2024/07/23 17:53 UTC NOAA

TORRINGTON MUNICIPAL AIRPORT, WY, United States (KTOR) 42-03N 104-09W 1277M
Jul 23, 2024 - 01:53 PM EDT / 2024.07.23 1753 UTC
Wind: from the WSW (250 degrees) at 6 MPH (5 KT):0
Visibility: 8 mile(s):0
Sky conditions: clear
Temperature: 86.0 F (30.0 C)
Dew Point: 51.1 F (10.6 C)
Relative Humidity: 30%
Pressure (altimeter): 30.15 in. Hg (1020 hPa)
Pressure tendency: 0.01 inches (0.5 hPa) lower than three hours ago
ob: KTOR 231753Z AUTO 25005KT 8SM CLR 30/11 A3015 RMK AO2 SLP159 T03000106 10300 20133 58005
cycle: 18

Station Type Date Time Source
KTOR TAF UTC NOAA

Error!

Example: see airport list